Impacts TAF Board INFO
FOR SITUATIONAL AWARENESS. NOT TO BE USED FOR FLIGHT PLANNING PURPOSES.
IDs:

KEWR - Newark Intl, NJ, US

Issued at 0904 UTC 19 Nov 2017
Updated at 1012 UTC 19 Nov 2017
Potential Impact None Slight Moderate High
Time0951Z 19/11Z 19/12Z 19/13Z 19/14Z 19/15Z 19/16Z 19/17Z 19/18Z 19/19Z 19/20Z 19/21Z 19/22Z 19/23Z>>
Type OBS PRVL PRVL PRVL PRVL PRVL PRVL PRVL PRVL PRVL PRVL PRVL PRVL PRVL
VIS 7 >6 >6 >6 >6 >6 >6 >6 >6 >6 >6 >6 >6 >6
CIG 16 40 40 40 40 40 40 40 40 -- -- -- -- --
Cover BKN OVC OVC OVC OVC BKN BKN BKN BKN SCT SCT SCT SCT SCT
FltCat MVFR VFR VFR VFR VFR VFR VFR VFR VFR VFR VFR VFR VFR VFR
WX -RA -SHRA -SHRA -SHRA -SHRA -- -- -- -- -- -- -- -- --
WDir 210 240 240 240 240 280 280 280 280 280 280 280 280 290
WSpd 13 20 20 20 20 22 22 22 22 22 22 22 22 17
WGst 23 37 37 37 37 37 37 37 37 34 34 34 34 27

Raw TAF
KEWR 190904Z 1909/2012 21018G26KT 6SM SHRA BR BKN025 OVC040 WS020/22050KT
  FM191100 24020G37KT P6SM -SHRA SCT025 OVC040
  FM191500 28022G37KT P6SM BKN040
  FM191900 28022G34KT P6SM SCT050
  FM192300 29017G27KT P6SM SCT050
  FM200600 29015G24KT P6SM FEW050


Raw METAR
KEWR 190951Z 21013G23KT 7SM -RA BKN016 BKN020 14/13 A2926 RMK AO2 PK WND 20026/0855 SLP909 P0011 T01440133
KEWR 190851Z 21019G25KT 7SM RA BKN022 BKN070 OVC100 14/13 A2928 RMK AO2 PK WND 20027/0840 SLP913 P0002 60004 T01440128 58029
KEWR 190751Z 21015G21KT 8SM RA BKN032 BKN045 OVC070 14/12 A2931 RMK AO2 RAE06B33 SLP925 P0002 T01440117

METAR Board
Radar Display
Forecast Discussion

FOR SITUATIONAL AWARENESS. NOT TO BE USED FOR FLIGHT PLANNING PURPOSES.